LGZA/ZTH METAR and TAF weather

Enter ICAO airport designator
Station Type Date Time Source
LGZA METAR 2020/07/15 05:50 UTC NOAA

LGZA 150550Z 32004KT 9999 FEW018 25/20 Q1014


Station Type Date Time Source
LGZA Decoded METAR 2020/07/15 05:50 UTC NOAA

Zakinthos Airport , Greece (LGZA) 37-45N 020-53E
Jul 15, 2020 - 01:50 AM EDT / 2020.07.15 0550 UTC
Wind: from the NW (320 degrees) at 5 MPH (4 KT):0
Visibility: greater than 7 mile(s):0
Sky conditions: mostly clear
Temperature: 77 F (25 C)
Dew Point: 68 F (20 C)
Relative Humidity: 73%
Pressure (altimeter): 29.94 in. Hg (1014 hPa)
ob: LGZA 150550Z 32004KT 9999 FEW018 25/20 Q1014
cycle: 6

Station Type Date Time Source
LGZA TAF 2011/11/25 15:06 UTC NOAA

TAF TAF LGZA 251400Z 2515/2603 02012KT 9999 FEW025 SCT035 BKN080 PROB30
TEMPO 2518/2603 8000 RA PROB30 2522/2603 5000 BR SCT010

Example: see airport list